createdAt,value
2023-01-15T00:00:05.997Z,7.30
2023-01-15T00:02:34.336Z,7.30
2023-01-15T00:05:03.456Z,7.40
2023-01-15T00:07:32.008Z,7.30
2023-01-15T00:09:59.965Z,7.30
2023-01-15T00:12:27.927Z,7.20
2023-01-15T00:14:58.211Z,7.20
2023-01-15T00:17:26.391Z,7.20
2023-01-15T00:19:54.277Z,7.20
2023-01-15T00:22:22.197Z,7.20
2023-01-15T00:25:07.449Z,7.20
2023-01-15T00:27:41.675Z,7.10
2023-01-15T00:30:15.356Z,7.20
2023-01-15T00:32:44.420Z,7.10
2023-01-15T00:35:14.674Z,7.10
2023-01-15T00:37:43.599Z,7.10
2023-01-15T00:40:13.148Z,7.10
2023-01-15T00:42:41.250Z,7.10
2023-01-15T00:45:12.673Z,7.10
2023-01-15T00:47:42.840Z,7.10
2023-01-15T00:50:13.137Z,7.10
2023-01-15T00:52:41.945Z,7.10
2023-01-15T00:55:10.513Z,7.00
2023-01-15T00:57:38.561Z,7.00
2023-01-15T01:00:07.845Z,7.00
2023-01-15T01:02:37.095Z,7.00
2023-01-15T01:05:05.611Z,7.00
2023-01-15T01:07:33.618Z,6.90
2023-01-15T01:10:01.451Z,6.90
2023-01-15T01:12:29.563Z,7.00
2023-01-15T01:14:57.426Z,7.00
2023-01-15T01:17:25.307Z,7.00
2023-01-15T01:19:54.483Z,6.90
2023-01-15T01:22:22.330Z,6.90
2023-01-15T01:24:50.338Z,6.90
2023-01-15T01:27:19.342Z,6.90
2023-01-15T01:29:47.227Z,7.00
2023-01-15T01:32:15.203Z,7.00
2023-01-15T01:34:43.386Z,6.90
2023-01-15T01:37:12.641Z,6.90
2023-01-15T01:39:41.111Z,6.90
2023-01-15T01:42:13.837Z,6.90
2023-01-15T01:45:19.811Z,6.90
2023-01-15T01:47:48.342Z,6.90
2023-01-15T01:50:16.248Z,6.90
2023-01-15T01:52:50.080Z,6.90
2023-01-15T01:55:21.349Z,6.90
2023-01-15T01:57:50.181Z,7.00
2023-01-15T02:00:19.910Z,6.90
2023-01-15T02:02:49.868Z,7.00
2023-01-15T02:05:27.941Z,7.00
2023-01-15T02:07:57.230Z,7.00
2023-01-15T02:10:25.330Z,7.00
2023-01-15T02:13:01.182Z,6.90
2023-01-15T02:15:36.594Z,7.00
2023-01-15T02:18:13.565Z,7.00
2023-01-15T02:20:44.620Z,7.00
2023-01-15T02:23:26.684Z,7.00
2023-01-15T02:26:22.906Z,7.00
2023-01-15T02:28:57.511Z,7.00
2023-01-15T02:31:31.407Z,7.00
2023-01-15T02:34:03.445Z,7.00
2023-01-15T02:36:35.555Z,7.10
2023-01-15T02:39:08.152Z,7.00
2023-01-15T02:41:40.327Z,7.00
2023-01-15T02:44:12.711Z,7.00
2023-01-15T02:46:42.203Z,7.00
2023-01-15T02:49:16.192Z,7.00
2023-01-15T02:51:50.331Z,7.00
2023-01-15T02:54:24.780Z,7.00
2023-01-15T02:56:54.975Z,7.00
2023-01-15T02:59:31.205Z,7.10
2023-01-15T03:02:02.704Z,7.10
2023-01-15T03:04:37.918Z,7.10
2023-01-15T03:07:10.759Z,7.10
2023-01-15T03:09:39.774Z,7.10
2023-01-15T03:12:11.204Z,7.10
2023-01-15T03:14:50.953Z,7.10
2023-01-15T03:17:22.078Z,7.10
2023-01-15T03:19:55.407Z,7.10
2023-01-15T03:22:29.350Z,7.00
2023-01-15T03:25:03.949Z,7.10
2023-01-15T03:27:35.878Z,7.10
2023-01-15T03:30:08.193Z,7.00
2023-01-15T03:32:37.015Z,7.00
2023-01-15T03:35:10.582Z,7.00
2023-01-15T03:37:44.694Z,7.00
2023-01-15T03:40:13.630Z,7.00
2023-01-15T03:43:12.612Z,7.00
2023-01-15T03:45:44.681Z,7.10
2023-01-15T03:48:21.299Z,6.90
2023-01-15T03:50:52.375Z,7.00
2023-01-15T03:53:23.921Z,7.00
2023-01-15T03:56:07.067Z,7.00
2023-01-15T03:58:44.521Z,7.00
2023-01-15T04:01:20.081Z,6.90
2023-01-15T04:03:50.228Z,7.00
2023-01-15T04:06:20.579Z,6.90
2023-01-15T04:08:49.248Z,6.90
2023-01-15T04:11:24.415Z,6.90
2023-01-15T04:13:55.358Z,6.90
2023-01-15T04:16:34.400Z,6.90
2023-01-15T04:19:02.441Z,6.90
2023-01-15T04:21:30.908Z,6.90
2023-01-15T04:23:59.059Z,6.90
2023-01-15T04:26:27.027Z,6.90
2023-01-15T04:28:55.054Z,6.90
2023-01-15T04:31:22.949Z,6.90
2023-01-15T04:33:52.225Z,6.90
2023-01-15T04:36:20.156Z,6.90
2023-01-15T04:38:47.972Z,6.90
2023-01-15T04:41:33.457Z,6.90
2023-01-15T04:44:07.295Z,6.90
2023-01-15T04:46:36.100Z,6.90
2023-01-15T04:49:06.246Z,6.90
2023-01-15T04:51:34.127Z,6.90
2023-01-15T04:54:03.910Z,6.90
2023-01-15T04:56:32.128Z,6.90
2023-01-15T04:59:01.807Z,7.00
2023-01-15T05:01:30.235Z,6.90
2023-01-15T05:03:58.744Z,6.90
2023-01-15T05:06:28.126Z,7.00
2023-01-15T05:08:56.010Z,6.90
2023-01-15T05:11:24.162Z,6.90
2023-01-15T05:13:52.071Z,6.90
2023-01-15T05:16:21.962Z,6.90
2023-01-15T05:18:49.812Z,6.80
2023-01-15T05:21:21.532Z,6.90
2023-01-15T05:23:51.961Z,6.80
2023-01-15T05:26:20.975Z,6.80
2023-01-15T05:28:49.136Z,6.80
2023-01-15T05:31:18.903Z,6.90
2023-01-15T05:33:48.480Z,6.90
2023-01-15T05:36:19.760Z,6.90
2023-01-15T05:38:48.031Z,6.80
2023-01-15T05:41:37.143Z,6.90
2023-01-15T05:44:07.562Z,6.90
2023-01-15T05:46:36.562Z,6.90
2023-01-15T05:49:06.184Z,6.90
2023-01-15T05:51:35.001Z,6.80
2023-01-15T05:54:03.267Z,6.80
2023-01-15T05:56:32.818Z,6.80
2023-01-15T05:59:00.667Z,6.80
2023-01-15T06:01:28.501Z,6.80
2023-01-15T06:03:59.578Z,6.80
2023-01-15T06:06:27.643Z,6.80
2023-01-15T06:08:55.484Z,6.80
2023-01-15T06:11:23.737Z,6.80
2023-01-15T06:13:52.960Z,6.80
2023-01-15T06:16:21.015Z,6.70
2023-01-15T06:18:48.979Z,6.80
2023-01-15T06:21:17.466Z,6.70
2023-01-15T06:23:45.439Z,6.70
2023-01-15T06:26:14.767Z,6.70
2023-01-15T06:28:43.051Z,6.70
2023-01-15T06:31:14.820Z,6.70
2023-01-15T06:33:43.046Z,6.70
2023-01-15T06:36:12.810Z,6.70
2023-01-15T06:38:40.808Z,6.70
2023-01-15T06:41:40.553Z,6.60
2023-01-15T06:44:31.020Z,6.70
2023-01-15T06:47:21.927Z,6.70
2023-01-15T06:49:52.060Z,6.70
2023-01-15T06:52:19.957Z,6.70
2023-01-15T06:54:47.876Z,6.70
2023-01-15T06:57:16.534Z,6.70
2023-01-15T06:59:44.363Z,6.70
2023-01-15T07:02:13.638Z,6.70
2023-01-15T07:04:41.487Z,6.70
2023-01-15T07:07:09.293Z,6.70
2023-01-15T07:09:38.025Z,6.80
2023-01-15T07:12:06.050Z,6.70
2023-01-15T07:14:33.932Z,6.70
2023-01-15T07:17:01.748Z,6.70
2023-01-15T07:19:30.991Z,6.70
2023-01-15T07:21:58.859Z,6.70
2023-01-15T07:24:26.776Z,6.60
2023-01-15T07:26:54.658Z,6.70
2023-01-15T07:29:23.216Z,6.70
2023-01-15T07:31:51.145Z,6.60
2023-01-15T07:34:19.169Z,6.60
2023-01-15T07:36:48.464Z,6.60
2023-01-15T07:39:16.703Z,6.60
2023-01-15T07:42:01.894Z,6.50
2023-01-15T07:44:52.935Z,6.50
2023-01-15T07:47:40.827Z,6.50
2023-01-15T07:50:10.595Z,6.50
2023-01-15T07:52:39.741Z,6.50
2023-01-15T07:55:09.980Z,6.50
2023-01-15T07:57:37.984Z,6.50
2023-01-15T08:00:07.502Z,6.50
2023-01-15T08:02:40.538Z,6.50
2023-01-15T08:05:11.368Z,6.50
2023-01-15T08:07:41.802Z,6.50
2023-01-15T08:10:11.740Z,6.50
2023-01-15T08:12:57.853Z,6.50
2023-01-15T08:15:25.947Z,6.50
2023-01-15T08:17:54.287Z,6.50
2023-01-15T08:20:25.395Z,6.40
2023-01-15T08:22:54.676Z,6.40
2023-01-15T08:25:24.998Z,6.40
2023-01-15T08:27:53.715Z,6.40
2023-01-15T08:30:23.604Z,6.40
2023-01-15T08:32:51.636Z,6.50
2023-01-15T08:35:19.492Z,6.50
2023-01-15T08:37:47.435Z,6.50
2023-01-15T08:40:16.641Z,6.50
2023-01-15T08:42:44.481Z,6.50
2023-01-15T08:45:12.827Z,6.50
2023-01-15T08:47:40.733Z,6.50
2023-01-15T08:50:09.814Z,6.50
2023-01-15T08:52:38.811Z,6.50
2023-01-15T08:55:08.282Z,6.50
2023-01-15T08:57:38.480Z,6.50
2023-01-15T09:00:07.869Z,6.50
2023-01-15T09:02:35.750Z,6.50
2023-01-15T09:05:03.675Z,6.50
2023-01-15T09:07:31.749Z,6.50
2023-01-15T09:09:59.559Z,6.50
2023-01-15T09:12:27.564Z,6.50
2023-01-15T09:15:01.795Z,6.50
2023-01-15T09:17:32.132Z,6.50
2023-01-15T09:20:00.649Z,6.50
2023-01-15T09:22:30.656Z,6.50
2023-01-15T09:24:58.596Z,6.50
2023-01-15T09:27:26.498Z,6.50
2023-01-15T09:29:56.179Z,6.40
2023-01-15T09:32:24.173Z,6.40
2023-01-15T09:34:52.271Z,6.40
2023-01-15T09:37:20.288Z,6.40
2023-01-15T09:39:48.271Z,6.40
2023-01-15T09:42:33.411Z,6.40
2023-01-15T09:45:22.428Z,6.40
2023-01-15T09:48:12.963Z,6.50
2023-01-15T09:50:49.474Z,6.50
2023-01-15T09:53:55.257Z,6.60
2023-01-15T09:56:25.447Z,6.60
2023-01-15T09:58:54.589Z,6.70
2023-01-15T10:01:29.935Z,6.80
2023-01-15T10:04:03.760Z,6.80
2023-01-15T10:06:36.650Z,6.80
2023-01-15T10:09:11.820Z,6.90
2023-01-15T10:12:01.785Z,6.90
2023-01-15T10:14:46.509Z,7.00
2023-01-15T10:17:27.193Z,7.00
2023-01-15T10:19:56.938Z,7.00
2023-01-15T10:22:59.646Z,7.10
2023-01-15T10:25:34.134Z,7.00
2023-01-15T10:28:13.363Z,7.00
2023-01-15T10:30:44.933Z,7.00
2023-01-15T10:33:34.453Z,7.00
2023-01-15T10:36:07.228Z,7.00
2023-01-15T10:38:44.833Z,7.00
2023-01-15T10:41:37.623Z,7.00
2023-01-15T10:44:14.153Z,6.90
2023-01-15T10:46:45.080Z,6.90
2023-01-15T10:49:16.890Z,6.90
2023-01-15T10:51:47.318Z,6.90
2023-01-15T10:54:26.738Z,6.90
2023-01-15T10:57:02.040Z,6.90
2023-01-15T10:59:39.165Z,6.90
2023-01-15T11:02:27.087Z,6.90
2023-01-15T11:04:56.675Z,6.90
2023-01-15T11:07:33.088Z,7.00
2023-01-15T11:10:04.732Z,7.00
2023-01-15T11:13:05.016Z,7.00
2023-01-15T11:15:50.553Z,7.10
2023-01-15T11:18:43.265Z,7.10
2023-01-15T11:21:16.314Z,7.10
2023-01-15T11:23:44.748Z,7.10
2023-01-15T11:26:20.786Z,7.10
2023-01-15T11:28:48.815Z,7.10
2023-01-15T11:31:18.128Z,7.10
2023-01-15T11:33:58.067Z,7.10
2023-01-15T11:36:28.847Z,7.10
2023-01-15T11:38:57.117Z,7.00
2023-01-15T11:41:50.344Z,7.10
2023-01-15T11:44:37.705Z,7.10
2023-01-15T11:47:29.709Z,7.10
2023-01-15T11:50:15.771Z,7.10
2023-01-15T11:52:49.691Z,7.00
2023-01-15T11:55:22.154Z,7.10
2023-01-15T11:57:51.422Z,7.00
2023-01-15T12:00:23.137Z,6.80
2023-01-15T12:02:53.734Z,6.60
2023-01-15T12:05:23.828Z,6.60
2023-01-15T12:07:55.923Z,6.60
2023-01-15T12:10:54.037Z,6.60
2023-01-15T12:13:32.584Z,6.70
2023-01-15T12:16:09.623Z,6.60
2023-01-15T12:18:56.965Z,6.50
2023-01-15T12:21:48.463Z,6.20
2023-01-15T12:24:42.406Z,5.90
2023-01-15T12:27:31.702Z,5.70
2023-01-15T12:30:03.537Z,5.30
2023-01-15T12:32:38.108Z,5.20
2023-01-15T12:35:15.094Z,5.30
2023-01-15T12:37:47.517Z,5.30
2023-01-15T12:40:23.625Z,5.40
2023-01-15T12:43:20.346Z,5.50
2023-01-15T12:45:53.112Z,5.50
2023-01-15T12:48:28.163Z,5.50
2023-01-15T12:51:00.042Z,5.60
2023-01-15T12:53:34.376Z,5.60
2023-01-15T12:56:14.984Z,5.60
2023-01-15T12:58:48.296Z,5.60
2023-01-15T13:01:24.815Z,5.50
2023-01-15T13:04:08.584Z,5.50
2023-01-15T13:06:42.533Z,5.40
2023-01-15T13:09:16.783Z,5.40
2023-01-15T13:11:46.038Z,5.50
2023-01-15T13:14:17.334Z,5.60
2023-01-15T13:16:55.041Z,5.70
2023-01-15T13:19:36.067Z,5.80
2023-01-15T13:22:11.585Z,5.80
2023-01-15T13:25:07.859Z,5.80
2023-01-15T13:27:54.530Z,5.80
2023-01-15T13:30:39.684Z,5.90
2023-01-15T13:33:19.299Z,5.90
2023-01-15T13:35:50.839Z,5.90
2023-01-15T13:38:23.403Z,6.00
2023-01-15T13:40:54.979Z,6.10
2023-01-15T13:43:33.524Z,6.10
2023-01-15T13:46:04.323Z,6.10
2023-01-15T13:48:35.803Z,6.10
2023-01-15T13:51:05.845Z,6.20
2023-01-15T13:53:35.787Z,6.20
2023-01-15T13:56:06.605Z,6.20
2023-01-15T13:58:39.046Z,6.20
2023-01-15T14:01:22.756Z,6.30
2023-01-15T14:04:03.824Z,6.30
2023-01-15T14:06:43.569Z,6.30
2023-01-15T14:09:13.526Z,6.40
2023-01-15T14:11:59.342Z,6.40
2023-01-15T14:14:43.627Z,6.50
2023-01-15T14:17:41.050Z,6.50
2023-01-15T14:20:37.852Z,6.60
2023-01-15T14:23:22.287Z,6.60
2023-01-15T14:26:01.517Z,6.60
2023-01-15T14:28:42.066Z,6.70
2023-01-15T14:31:22.836Z,6.70
2023-01-15T14:34:05.048Z,6.70
2023-01-15T14:36:40.136Z,6.80
2023-01-15T14:39:25.251Z,6.80
2023-01-15T14:42:16.085Z,6.80
2023-01-15T14:44:46.211Z,6.80
2023-01-15T14:47:26.626Z,6.80
2023-01-15T14:50:03.444Z,6.80
2023-01-15T14:52:31.907Z,6.80
2023-01-15T14:55:00.649Z,6.90
2023-01-15T14:57:28.968Z,6.90
2023-01-15T15:00:03.883Z,6.90
2023-01-15T15:02:38.666Z,6.90
2023-01-15T15:05:13.716Z,6.90
2023-01-15T15:07:45.438Z,7.00
2023-01-15T15:10:21.252Z,6.90
2023-01-15T15:12:55.254Z,6.90
2023-01-15T15:15:46.823Z,6.90
2023-01-15T15:18:28.926Z,6.90
2023-01-15T15:21:06.443Z,7.00
2023-01-15T15:23:40.629Z,7.00
2023-01-15T15:26:20.788Z,7.00
2023-01-15T15:28:57.887Z,6.90
2023-01-15T15:31:26.459Z,6.90
2023-01-15T15:33:57.393Z,6.80
2023-01-15T15:36:26.927Z,6.60
2023-01-15T15:38:56.471Z,6.50
2023-01-15T15:41:42.011Z,6.40
2023-01-15T15:44:32.809Z,6.30
2023-01-15T15:47:26.458Z,6.10
2023-01-15T15:49:56.035Z,6.00
2023-01-15T15:52:25.820Z,5.90
2023-01-15T15:55:00.425Z,5.80
2023-01-15T15:57:30.267Z,5.80
2023-01-15T15:59:58.202Z,5.80
2023-01-15T16:02:34.278Z,5.80
2023-01-15T16:05:05.479Z,5.70
2023-01-15T16:07:36.328Z,5.70
2023-01-15T16:10:13.556Z,5.60
2023-01-15T16:12:45.415Z,5.50
2023-01-15T16:15:17.411Z,5.50
2023-01-15T16:17:45.962Z,5.50
2023-01-15T16:20:17.795Z,5.50
2023-01-15T16:22:46.822Z,5.50
2023-01-15T16:25:25.839Z,5.50
2023-01-15T16:27:54.115Z,5.50
2023-01-15T16:30:22.593Z,5.50
2023-01-15T16:32:52.047Z,5.50
2023-01-15T16:35:24.414Z,5.50
2023-01-15T16:37:56.141Z,5.50
2023-01-15T16:40:28.812Z,5.60
2023-01-15T16:43:07.136Z,5.50
2023-01-15T16:45:37.692Z,5.50
2023-01-15T16:48:27.200Z,5.50
2023-01-15T16:50:58.180Z,5.50
2023-01-15T16:53:38.860Z,5.50
2023-01-15T16:56:24.553Z,5.50
2023-01-15T16:58:52.613Z,5.50
2023-01-15T17:01:35.429Z,5.50
2023-01-15T17:04:04.598Z,5.50
2023-01-15T17:06:33.885Z,5.50
2023-01-15T17:09:01.822Z,5.50
2023-01-15T17:11:33.312Z,5.50
2023-01-15T17:14:18.977Z,5.60
2023-01-15T17:16:46.905Z,5.60
2023-01-15T17:19:17.744Z,5.60
2023-01-15T17:21:47.592Z,5.70
2023-01-15T17:24:15.584Z,5.70
2023-01-15T17:26:43.556Z,5.70
2023-01-15T17:29:13.259Z,5.60
2023-01-15T17:31:43.758Z,5.60
2023-01-15T17:34:11.723Z,5.60
2023-01-15T17:36:39.801Z,5.60
2023-01-15T17:39:13.022Z,5.60
2023-01-15T17:41:40.909Z,5.50
2023-01-15T17:44:09.871Z,5.50
2023-01-15T17:46:37.785Z,5.50
2023-01-15T17:49:05.639Z,5.50
2023-01-15T17:51:33.514Z,5.50
2023-01-15T17:54:01.404Z,5.50
2023-01-15T17:56:47.975Z,5.60
2023-01-15T17:59:33.599Z,5.60
2023-01-15T18:02:18.809Z,5.60
2023-01-15T18:05:07.190Z,5.60
2023-01-15T18:07:40.748Z,5.60
2023-01-15T18:10:11.533Z,5.60
2023-01-15T18:12:40.890Z,5.70
2023-01-15T18:15:09.539Z,5.70
2023-01-15T18:17:37.351Z,5.70
2023-01-15T18:20:06.153Z,5.70
2023-01-15T18:22:34.018Z,5.70
2023-01-15T18:25:02.094Z,5.70
2023-01-15T18:27:30.815Z,5.80
2023-01-15T18:30:00.377Z,5.80
2023-01-15T18:32:29.273Z,5.80
2023-01-15T18:34:57.263Z,5.80
2023-01-15T18:37:25.184Z,5.80
2023-01-15T18:39:53.005Z,5.90
2023-01-15T18:42:38.677Z,5.90
2023-01-15T18:45:38.337Z,5.90
2023-01-15T18:48:06.572Z,6.00
2023-01-15T18:50:34.594Z,6.00
2023-01-15T18:53:02.474Z,6.00
2023-01-15T18:55:30.438Z,6.00
2023-01-15T18:57:58.341Z,6.00
2023-01-15T19:00:27.665Z,6.00
2023-01-15T19:02:55.600Z,6.00
2023-01-15T19:05:23.864Z,6.00
2023-01-15T19:07:51.863Z,6.10
2023-01-15T19:10:20.051Z,6.00
2023-01-15T19:12:48.800Z,6.10
2023-01-15T19:35:42.851Z,6.10
2023-01-15T19:38:11.603Z,6.10
2023-01-15T19:40:42.010Z,6.10
2023-01-15T19:43:28.634Z,6.10
2023-01-15T19:46:13.870Z,6.10
2023-01-15T19:48:59.854Z,6.00
2023-01-15T19:52:00.817Z,6.00
2023-01-15T19:54:42.628Z,6.00
2023-01-15T19:57:10.579Z,6.00
2023-01-15T19:59:38.502Z,6.00
2023-01-15T20:02:06.540Z,6.00
2023-01-15T20:04:35.078Z,6.00
2023-01-15T20:07:04.337Z,6.00
2023-01-15T20:09:32.211Z,5.90
2023-01-15T20:12:17.544Z,6.00
2023-01-15T20:14:47.356Z,5.90
2023-01-15T20:17:15.357Z,5.90
2023-01-15T20:19:43.281Z,5.90
2023-01-15T20:22:12.835Z,5.90
2023-01-15T20:24:43.733Z,5.90
2023-01-15T20:27:12.505Z,5.90
2023-01-15T20:29:40.764Z,5.90
2023-01-15T20:32:08.760Z,5.90
2023-01-15T20:34:38.430Z,5.90
2023-01-15T20:37:06.505Z,5.90
2023-01-15T20:39:36.041Z,5.80
2023-01-15T20:42:21.778Z,5.80
2023-01-15T20:44:55.747Z,5.80
2023-01-15T20:47:42.789Z,5.80
2023-01-15T20:50:13.811Z,5.70
2023-01-15T20:52:46.575Z,5.80
2023-01-15T20:55:16.859Z,5.80
2023-01-15T20:57:44.887Z,5.80
2023-01-15T21:00:15.038Z,5.80
2023-01-15T21:02:43.157Z,5.80
2023-01-15T21:05:11.521Z,5.80
2023-01-15T21:07:39.833Z,5.80
2023-01-15T21:10:10.281Z,5.80
2023-01-15T21:12:39.663Z,5.80
2023-01-15T21:15:08.747Z,5.80
2023-01-15T21:17:38.098Z,5.80
2023-01-15T21:20:07.518Z,5.80
2023-01-15T21:22:35.604Z,5.80
2023-01-15T21:25:03.624Z,5.70
2023-01-15T21:27:32.000Z,5.70
2023-01-15T21:30:01.236Z,5.80
2023-01-15T21:32:29.060Z,5.80
2023-01-15T21:34:56.984Z,5.80
2023-01-15T21:37:24.975Z,5.80
2023-01-15T21:39:52.812Z,5.80
2023-01-15T21:42:40.218Z,5.80
2023-01-15T21:45:11.922Z,5.80
2023-01-15T21:47:41.448Z,5.80
2023-01-15T21:50:10.755Z,5.80
2023-01-15T21:52:38.736Z,5.90
2023-01-15T21:55:08.278Z,5.80
2023-01-15T21:57:36.137Z,5.90
2023-01-15T22:00:05.998Z,5.90
2023-01-15T22:02:37.511Z,5.90
2023-01-15T22:05:07.953Z,5.80
2023-01-15T22:07:36.116Z,5.80
2023-01-15T22:10:04.214Z,5.90
2023-01-15T22:12:33.746Z,5.90
2023-01-15T22:15:01.619Z,5.90
2023-01-15T22:17:29.501Z,5.90
2023-01-15T22:19:58.681Z,5.90
2023-01-15T22:22:30.757Z,5.90
2023-01-15T22:24:58.658Z,5.90
2023-01-15T22:27:27.998Z,6.00
2023-01-15T22:29:55.918Z,5.90
2023-01-15T22:32:23.769Z,5.90
2023-01-15T22:34:51.958Z,5.90
2023-01-15T22:37:21.148Z,5.80
2023-01-15T22:39:49.879Z,5.80
2023-01-15T22:42:28.211Z,5.80
2023-01-15T22:44:59.689Z,5.70
2023-01-15T22:47:28.546Z,5.70
2023-01-15T22:49:56.474Z,5.70
2023-01-15T22:52:26.132Z,5.60
2023-01-15T22:54:54.495Z,5.50
2023-01-15T22:57:22.487Z,5.50
2023-01-15T22:59:51.341Z,5.50
2023-01-15T23:02:40.239Z,5.40
2023-01-15T23:05:08.755Z,5.40
2023-01-15T23:07:40.552Z,5.30
2023-01-15T23:10:12.029Z,5.30
2023-01-15T23:12:40.350Z,5.30
2023-01-15T23:15:12.042Z,5.30
2023-01-15T23:17:40.394Z,5.30
2023-01-15T23:20:09.375Z,5.30
2023-01-15T23:22:39.333Z,5.40
2023-01-15T23:25:08.849Z,5.40
2023-01-15T23:27:36.890Z,5.40
2023-01-15T23:30:05.676Z,5.40
2023-01-15T23:32:33.572Z,5.40
2023-01-15T23:35:01.504Z,5.40
2023-01-15T23:37:29.352Z,5.40
2023-01-15T23:39:58.558Z,5.40
2023-01-15T23:42:44.761Z,5.40
2023-01-15T23:45:30.345Z,5.40
2023-01-15T23:47:58.416Z,5.40
2023-01-15T23:50:26.236Z,5.40
2023-01-15T23:52:54.138Z,5.50
2023-01-15T23:55:23.357Z,5.50
2023-01-15T23:57:51.181Z,5.50
